sensor_id;sensor_type;location;lat;lon;timestamp;temperature;humidity
19088;DHT22;9676;50.916;13.352;2023-03-14T00:00:06;13.50;99.90
19088;DHT22;9676;50.916;13.352;2023-03-14T00:02:58;13.40;99.90
19088;DHT22;9676;50.916;13.352;2023-03-14T00:05:47;13.40;99.90
19088;DHT22;9676;50.916;13.352;2023-03-14T00:08:37;13.40;99.90
19088;DHT22;9676;50.916;13.352;2023-03-14T00:11:26;13.40;99.90
19088;DHT22;9676;50.916;13.352;2023-03-14T00:14:15;13.30;99.90
19088;DHT22;9676;50.916;13.352;2023-03-14T00:17:04;13.30;99.90
19088;DHT22;9676;50.916;13.352;2023-03-14T00:19:54;13.30;99.90
19088;DHT22;9676;50.916;13.352;2023-03-14T00:22:43;13.30;99.90
19088;DHT22;9676;50.916;13.352;2023-03-14T00:25:32;13.20;99.90
19088;DHT22;9676;50.916;13.352;2023-03-14T00:28:22;13.20;99.90
19088;DHT22;9676;50.916;13.352;2023-03-14T00:31:14;13.20;99.90
19088;DHT22;9676;50.916;13.352;2023-03-14T00:34:04;13.20;99.90
19088;DHT22;9676;50.916;13.352;2023-03-14T00:36:53;13.10;99.90
19088;DHT22;9676;50.916;13.352;2023-03-14T00:39:43;13.10;99.90
19088;DHT22;9676;50.916;13.352;2023-03-14T00:42:32;13.10;99.90
19088;DHT22;9676;50.916;13.352;2023-03-14T00:45:21;13.10;99.90
19088;DHT22;9676;50.916;13.352;2023-03-14T00:48:12;13.10;99.90
19088;DHT22;9676;50.916;13.352;2023-03-14T00:51:04;13.10;99.90
19088;DHT22;9676;50.916;13.352;2023-03-14T00:53:55;13.10;99.90
19088;DHT22;9676;50.916;13.352;2023-03-14T00:56:44;13.20;99.90
19088;DHT22;9676;50.916;13.352;2023-03-14T00:59:34;13.20;99.90
19088;DHT22;9676;50.916;13.352;2023-03-14T01:02:23;13.20;99.90
19088;DHT22;9676;50.916;13.352;2023-03-14T01:05:14;13.20;99.90
19088;DHT22;9676;50.916;13.352;2023-03-14T01:08:04;13.20;99.90
19088;DHT22;9676;50.916;13.352;2023-03-14T01:10:54;13.20;99.90
19088;DHT22;9676;50.916;13.352;2023-03-14T01:13:44;13.30;99.90
19088;DHT22;9676;50.916;13.352;2023-03-14T01:16:34;13.30;99.90
19088;DHT22;9676;50.916;13.352;2023-03-14T01:19:24;13.30;99.90
19088;DHT22;9676;50.916;13.352;2023-03-14T01:22:15;13.30;99.90
19088;DHT22;9676;50.916;13.352;2023-03-14T01:25:06;13.30;99.90
19088;DHT22;9676;50.916;13.352;2023-03-14T01:27:57;13.30;99.90
19088;DHT22;9676;50.916;13.352;2023-03-14T01:30:48;13.30;99.90
19088;DHT22;9676;50.916;13.352;2023-03-14T01:33:37;13.30;99.90
19088;DHT22;9676;50.916;13.352;2023-03-14T01:36:26;13.40;99.90
19088;DHT22;9676;50.916;13.352;2023-03-14T01:39:22;13.40;99.90
19088;DHT22;9676;50.916;13.352;2023-03-14T01:42:11;13.40;99.90
19088;DHT22;9676;50.916;13.352;2023-03-14T01:45:02;13.40;99.90
19088;DHT22;9676;50.916;13.352;2023-03-14T01:47:50;13.40;99.90
19088;DHT22;9676;50.916;13.352;2023-03-14T01:50:38;13.50;99.90
19088;DHT22;9676;50.916;13.352;2023-03-14T01:53:28;13.50;99.90
19088;DHT22;9676;50.916;13.352;2023-03-14T01:56:19;13.50;99.90
19088;DHT22;9676;50.916;13.352;2023-03-14T01:59:10;13.50;99.90
19088;DHT22;9676;50.916;13.352;2023-03-14T02:02:00;13.60;99.90
19088;DHT22;9676;50.916;13.352;2023-03-14T02:04:53;13.60;99.90
19088;DHT22;9676;50.916;13.352;2023-03-14T02:07:50;13.60;99.90
19088;DHT22;9676;50.916;13.352;2023-03-14T02:10:47;13.60;99.90
19088;DHT22;9676;50.916;13.352;2023-03-14T02:13:44;13.60;99.90
19088;DHT22;9676;50.916;13.352;2023-03-14T02:16:56;13.60;99.90
19088;DHT22;9676;50.916;13.352;2023-03-14T02:20:18;13.60;99.90
19088;DHT22;9676;50.916;13.352;2023-03-14T02:23:23;13.60;99.90
19088;DHT22;9676;50.916;13.352;2023-03-14T02:26:17;13.60;99.90
19088;DHT22;9676;50.916;13.352;2023-03-14T02:29:11;13.60;99.90
19088;DHT22;9676;50.916;13.352;2023-03-14T02:32:02;13.60;99.90
19088;DHT22;9676;50.916;13.352;2023-03-14T02:34:54;13.60;99.90
19088;DHT22;9676;50.916;13.352;2023-03-14T02:37:49;13.60;99.90
19088;DHT22;9676;50.916;13.352;2023-03-14T02:40:41;13.60;99.90
19088;DHT22;9676;50.916;13.352;2023-03-14T02:43:31;13.60;99.90
19088;DHT22;9676;50.916;13.352;2023-03-14T02:46:25;13.60;99.90
19088;DHT22;9676;50.916;13.352;2023-03-14T02:49:14;13.70;99.90
19088;DHT22;9676;50.916;13.352;2023-03-14T02:52:01;13.70;99.90
19088;DHT22;9676;50.916;13.352;2023-03-14T02:54:49;13.70;99.90
19088;DHT22;9676;50.916;13.352;2023-03-14T02:57:39;13.70;99.90
19088;DHT22;9676;50.916;13.352;2023-03-14T03:00:28;13.80;99.90
19088;DHT22;9676;50.916;13.352;2023-03-14T03:03:20;13.80;99.90
19088;DHT22;9676;50.916;13.352;2023-03-14T03:06:09;13.80;99.90
19088;DHT22;9676;50.916;13.352;2023-03-14T03:08:59;13.80;99.90
19088;DHT22;9676;50.916;13.352;2023-03-14T03:11:48;13.80;99.90
19088;DHT22;9676;50.916;13.352;2023-03-14T03:14:42;13.80;99.90
19088;DHT22;9676;50.916;13.352;2023-03-14T03:17:31;13.80;99.90
19088;DHT22;9676;50.916;13.352;2023-03-14T03:20:22;13.80;99.90
19088;DHT22;9676;50.916;13.352;2023-03-14T03:23:11;13.80;99.90
19088;DHT22;9676;50.916;13.352;2023-03-14T03:26:01;13.80;99.90
19088;DHT22;9676;50.916;13.352;2023-03-14T03:28:51;13.80;99.90
19088;DHT22;9676;50.916;13.352;2023-03-14T03:31:42;13.80;99.90
19088;DHT22;9676;50.916;13.352;2023-03-14T03:34:33;13.80;99.90
19088;DHT22;9676;50.916;13.352;2023-03-14T03:37:23;13.80;99.90
19088;DHT22;9676;50.916;13.352;2023-03-14T03:40:11;13.70;99.80
19088;DHT22;9676;50.916;13.352;2023-03-14T03:43:00;13.70;99.70
19088;DHT22;9676;50.916;13.352;2023-03-14T03:45:55;13.70;99.50
19088;DHT22;9676;50.916;13.352;2023-03-14T03:48:44;13.70;99.40
19088;DHT22;9676;50.916;13.352;2023-03-14T03:51:33;13.70;99.30
19088;DHT22;9676;50.916;13.352;2023-03-14T03:54:25;13.70;99.20
19088;DHT22;9676;50.916;13.352;2023-03-14T03:57:14;13.60;99.00
19088;DHT22;9676;50.916;13.352;2023-03-14T04:00:05;13.60;99.00
19088;DHT22;9676;50.916;13.352;2023-03-14T04:03:03;13.60;98.90
19088;DHT22;9676;50.916;13.352;2023-03-14T04:06:00;13.50;98.90
19088;DHT22;9676;50.916;13.352;2023-03-14T04:08:50;13.50;98.80
19088;DHT22;9676;50.916;13.352;2023-03-14T04:11:53;13.50;98.80
19088;DHT22;9676;50.916;13.352;2023-03-14T04:14:40;13.50;98.60
19088;DHT22;9676;50.916;13.352;2023-03-14T04:17:35;13.40;98.50
19088;DHT22;9676;50.916;13.352;2023-03-14T04:20:25;13.40;98.40
19088;DHT22;9676;50.916;13.352;2023-03-14T04:23:15;13.40;98.30
19088;DHT22;9676;50.916;13.352;2023-03-14T04:26:05;13.40;98.20
19088;DHT22;9676;50.916;13.352;2023-03-14T04:28:56;13.40;98.20
19088;DHT22;9676;50.916;13.352;2023-03-14T04:31:45;13.30;98.10
19088;DHT22;9676;50.916;13.352;2023-03-14T04:34:36;13.30;98.10
19088;DHT22;9676;50.916;13.352;2023-03-14T04:37:26;13.30;98.10
19088;DHT22;9676;50.916;13.352;2023-03-14T04:40:16;13.30;98.00
19088;DHT22;9676;50.916;13.352;2023-03-14T04:43:06;13.30;97.90
19088;DHT22;9676;50.916;13.352;2023-03-14T04:45:59;13.20;97.70
19088;DHT22;9676;50.916;13.352;2023-03-14T04:48:47;13.20;97.60
19088;DHT22;9676;50.916;13.352;2023-03-14T04:51:37;13.20;97.70
19088;DHT22;9676;50.916;13.352;2023-03-14T04:54:26;13.20;97.60
19088;DHT22;9676;50.916;13.352;2023-03-14T04:57:18;13.20;97.60
19088;DHT22;9676;50.916;13.352;2023-03-14T05:00:10;13.20;97.60
19088;DHT22;9676;50.916;13.352;2023-03-14T05:03:14;13.10;97.60
19088;DHT22;9676;50.916;13.352;2023-03-14T05:06:23;13.10;97.50
19088;DHT22;9676;50.916;13.352;2023-03-14T05:09:27;13.10;97.60
19088;DHT22;9676;50.916;13.352;2023-03-14T05:12:19;13.10;97.60
19088;DHT22;9676;50.916;13.352;2023-03-14T05:15:29;13.10;97.60
19088;DHT22;9676;50.916;13.352;2023-03-14T05:18:39;13.10;97.60
19088;DHT22;9676;50.916;13.352;2023-03-14T05:21:47;13.10;97.60
19088;DHT22;9676;50.916;13.352;2023-03-14T05:25:07;13.00;97.60
19088;DHT22;9676;50.916;13.352;2023-03-14T05:28:20;13.00;97.60
19088;DHT22;9676;50.916;13.352;2023-03-14T05:31:27;13.00;97.60
19088;DHT22;9676;50.916;13.352;2023-03-14T05:34:36;13.00;97.50
19088;DHT22;9676;50.916;13.352;2023-03-14T05:37:42;13.00;97.50
19088;DHT22;9676;50.916;13.352;2023-03-14T05:40:49;13.00;97.50
19088;DHT22;9676;50.916;13.352;2023-03-14T05:43:59;13.00;97.50
19088;DHT22;9676;50.916;13.352;2023-03-14T05:47:14;13.00;97.50
19088;DHT22;9676;50.916;13.352;2023-03-14T05:50:25;13.10;97.50
19088;DHT22;9676;50.916;13.352;2023-03-14T05:53:32;13.10;97.50
19088;DHT22;9676;50.916;13.352;2023-03-14T05:56:53;13.10;97.50
19088;DHT22;9676;50.916;13.352;2023-03-14T06:00:09;13.10;97.50
19088;DHT22;9676;50.916;13.352;2023-03-14T06:03:14;13.10;97.40
19088;DHT22;9676;50.916;13.352;2023-03-14T06:06:08;13.10;97.60
19088;DHT22;9676;50.916;13.352;2023-03-14T06:08:58;13.10;97.50
19088;DHT22;9676;50.916;13.352;2023-03-14T06:11:48;13.10;97.60
19088;DHT22;9676;50.916;13.352;2023-03-14T06:14:38;13.20;97.60
19088;DHT22;9676;50.916;13.352;2023-03-14T06:17:27;13.20;97.50
19088;DHT22;9676;50.916;13.352;2023-03-14T06:20:23;13.20;97.50
19088;DHT22;9676;50.916;13.352;2023-03-14T06:23:14;13.20;97.50
19088;DHT22;9676;50.916;13.352;2023-03-14T06:26:05;13.30;97.60
19088;DHT22;9676;50.916;13.352;2023-03-14T06:28:54;13.30;97.80
19088;DHT22;9676;50.916;13.352;2023-03-14T06:31:44;13.30;97.80
19088;DHT22;9676;50.916;13.352;2023-03-14T06:34:36;13.40;97.90
19088;DHT22;9676;50.916;13.352;2023-03-14T06:37:24;13.40;97.90
19088;DHT22;9676;50.916;13.352;2023-03-14T06:40:14;13.50;98.00
19088;DHT22;9676;50.916;13.352;2023-03-14T06:43:30;13.50;97.80
19088;DHT22;9676;50.916;13.352;2023-03-14T06:46:19;13.60;97.90
19088;DHT22;9676;50.916;13.352;2023-03-14T06:49:09;13.60;97.80
19088;DHT22;9676;50.916;13.352;2023-03-14T06:51:58;13.70;97.70
19088;DHT22;9676;50.916;13.352;2023-03-14T06:54:49;13.70;97.60
19088;DHT22;9676;50.916;13.352;2023-03-14T06:57:43;13.80;97.60
19088;DHT22;9676;50.916;13.352;2023-03-14T07:00:33;13.80;97.60
19088;DHT22;9676;50.916;13.352;2023-03-14T07:03:23;13.90;97.70
19088;DHT22;9676;50.916;13.352;2023-03-14T07:06:14;13.90;97.60
19088;DHT22;9676;50.916;13.352;2023-03-14T07:09:04;13.90;97.50
19088;DHT22;9676;50.916;13.352;2023-03-14T07:11:57;14.00;97.50
19088;DHT22;9676;50.916;13.352;2023-03-14T07:14:48;14.00;97.40
19088;DHT22;9676;50.916;13.352;2023-03-14T07:17:37;14.10;97.20
19088;DHT22;9676;50.916;13.352;2023-03-14T07:20:26;14.10;97.20
19088;DHT22;9676;50.916;13.352;2023-03-14T07:23:16;14.10;97.20
19088;DHT22;9676;50.916;13.352;2023-03-14T07:26:09;14.10;97.20
19088;DHT22;9676;50.916;13.352;2023-03-14T07:29:04;14.20;97.10
19088;DHT22;9676;50.916;13.352;2023-03-14T07:31:55;14.20;97.20
19088;DHT22;9676;50.916;13.352;2023-03-14T07:34:44;14.20;97.30
19088;DHT22;9676;50.916;13.352;2023-03-14T07:37:34;14.30;97.60
19088;DHT22;9676;50.916;13.352;2023-03-14T07:40:24;14.30;97.40
19088;DHT22;9676;50.916;13.352;2023-03-14T07:43:14;14.40;97.30
19088;DHT22;9676;50.916;13.352;2023-03-14T07:46:08;14.40;97.20
19088;DHT22;9676;50.916;13.352;2023-03-14T07:48:59;14.50;97.00
19088;DHT22;9676;50.916;13.352;2023-03-14T07:51:48;14.50;96.50
19088;DHT22;9676;50.916;13.352;2023-03-14T07:54:38;14.50;96.30
19088;DHT22;9676;50.916;13.352;2023-03-14T07:57:28;14.60;96.20
19088;DHT22;9676;50.916;13.352;2023-03-14T08:00:18;14.60;95.80
19088;DHT22;9676;50.916;13.352;2023-03-14T08:03:08;14.60;95.60
19088;DHT22;9676;50.916;13.352;2023-03-14T08:05:58;14.60;95.50
19088;DHT22;9676;50.916;13.352;2023-03-14T08:08:48;14.60;95.40
19088;DHT22;9676;50.916;13.352;2023-03-14T08:11:38;14.70;95.80
19088;DHT22;9676;50.916;13.352;2023-03-14T08:14:28;14.70;95.60
19088;DHT22;9676;50.916;13.352;2023-03-14T08:17:18;14.70;95.50
19088;DHT22;9676;50.916;13.352;2023-03-14T08:20:09;14.80;95.70
19088;DHT22;9676;50.916;13.352;2023-03-14T08:23:02;14.80;95.90
19088;DHT22;9676;50.916;13.352;2023-03-14T08:25:52;14.90;96.00
19088;DHT22;9676;50.916;13.352;2023-03-14T08:28:41;15.00;96.10
19088;DHT22;9676;50.916;13.352;2023-03-14T08:31:31;15.10;96.00
19088;DHT22;9676;50.916;13.352;2023-03-14T08:34:20;15.20;96.00
19088;DHT22;9676;50.916;13.352;2023-03-14T08:37:10;15.30;95.60
19088;DHT22;9676;50.916;13.352;2023-03-14T08:40:14;15.40;95.00
19088;DHT22;9676;50.916;13.352;2023-03-14T08:43:05;15.40;94.50
19088;DHT22;9676;50.916;13.352;2023-03-14T08:45:52;15.60;95.00
19088;DHT22;9676;50.916;13.352;2023-03-14T08:48:41;15.60;95.10
19088;DHT22;9676;50.916;13.352;2023-03-14T08:51:28;15.70;95.50
19088;DHT22;9676;50.916;13.352;2023-03-14T08:54:18;15.80;96.30
19088;DHT22;9676;50.916;13.352;2023-03-14T08:57:09;16.00;96.50
19088;DHT22;9676;50.916;13.352;2023-03-14T08:59:58;16.20;95.90
19088;DHT22;9676;50.916;13.352;2023-03-14T09:02:47;16.30;96.10
19088;DHT22;9676;50.916;13.352;2023-03-14T09:05:37;16.50;95.90
19088;DHT22;9676;50.916;13.352;2023-03-14T09:08:26;16.60;96.00
19088;DHT22;9676;50.916;13.352;2023-03-14T09:11:15;16.80;95.60
19088;DHT22;9676;50.916;13.352;2023-03-14T09:14:07;16.90;95.40
19088;DHT22;9676;50.916;13.352;2023-03-14T09:16:57;17.00;94.30
19088;DHT22;9676;50.916;13.352;2023-03-14T09:19:46;17.10;93.20
19088;DHT22;9676;50.916;13.352;2023-03-14T09:22:35;17.20;92.30
19088;DHT22;9676;50.916;13.352;2023-03-14T09:25:25;17.20;92.00
19088;DHT22;9676;50.916;13.352;2023-03-14T09:28:14;17.10;91.40
19088;DHT22;9676;50.916;13.352;2023-03-14T09:31:10;17.10;91.10
19088;DHT22;9676;50.916;13.352;2023-03-14T09:34:01;17.00;89.80
19088;DHT22;9676;50.916;13.352;2023-03-14T09:36:50;16.90;90.30
19088;DHT22;9676;50.916;13.352;2023-03-14T09:39:40;16.90;88.40
19088;DHT22;9676;50.916;13.352;2023-03-14T09:42:29;16.80;88.30
19088;DHT22;9676;50.916;13.352;2023-03-14T09:45:25;16.70;87.70
19088;DHT22;9676;50.916;13.352;2023-03-14T09:48:20;16.60;86.10
19088;DHT22;9676;50.916;13.352;2023-03-14T09:51:14;16.50;86.30
19088;DHT22;9676;50.916;13.352;2023-03-14T09:54:05;16.40;86.30
19088;DHT22;9676;50.916;13.352;2023-03-14T09:56:59;16.30;86.70
19088;DHT22;9676;50.916;13.352;2023-03-14T09:59:50;16.20;86.70
19088;DHT22;9676;50.916;13.352;2023-03-14T10:02:42;16.10;86.20
19088;DHT22;9676;50.916;13.352;2023-03-14T10:05:35;16.10;86.00
19088;DHT22;9676;50.916;13.352;2023-03-14T10:08:24;16.00;86.20
19088;DHT22;9676;50.916;13.352;2023-03-14T10:11:15;16.00;86.30
19088;DHT22;9676;50.916;13.352;2023-03-14T10:14:07;15.90;86.10
19088;DHT22;9676;50.916;13.352;2023-03-14T10:17:06;15.90;85.70
19088;DHT22;9676;50.916;13.352;2023-03-14T10:19:59;15.80;84.70
19088;DHT22;9676;50.916;13.352;2023-03-14T10:22:51;15.80;85.90
19088;DHT22;9676;50.916;13.352;2023-03-14T10:25:42;15.80;85.50
19088;DHT22;9676;50.916;13.352;2023-03-14T10:28:34;15.80;86.10
19088;DHT22;9676;50.916;13.352;2023-03-14T10:31:27;15.70;86.10
19088;DHT22;9676;50.916;13.352;2023-03-14T10:34:21;15.70;86.40
19088;DHT22;9676;50.916;13.352;2023-03-14T10:37:18;15.70;86.40
19088;DHT22;9676;50.916;13.352;2023-03-14T10:40:14;15.70;85.40
19088;DHT22;9676;50.916;13.352;2023-03-14T10:43:05;15.70;86.10
19088;DHT22;9676;50.916;13.352;2023-03-14T10:45:57;15.80;88.00
19088;DHT22;9676;50.916;13.352;2023-03-14T10:48:49;15.80;87.60
19088;DHT22;9676;50.916;13.352;2023-03-14T10:51:38;15.80;87.70
19088;DHT22;9676;50.916;13.352;2023-03-14T10:54:29;15.90;88.20
19088;DHT22;9676;50.916;13.352;2023-03-14T10:57:21;16.00;88.60
19088;DHT22;9676;50.916;13.352;2023-03-14T11:00:15;16.20;89.70
19088;DHT22;9676;50.916;13.352;2023-03-14T11:03:09;16.30;89.80
19088;DHT22;9676;50.916;13.352;2023-03-14T11:06:05;16.50;90.40
19088;DHT22;9676;50.916;13.352;2023-03-14T11:09:04;16.70;89.70
19088;DHT22;9676;50.916;13.352;2023-03-14T11:12:04;17.00;91.00
19088;DHT22;9676;50.916;13.352;2023-03-14T11:15:12;17.30;91.20
19088;DHT22;9676;50.916;13.352;2023-03-14T11:18:26;17.60;90.60
19088;DHT22;9676;50.916;13.352;2023-03-14T11:21:29;17.90;89.00
19088;DHT22;9676;50.916;13.352;2023-03-14T11:24:30;18.10;88.30
19088;DHT22;9676;50.916;13.352;2023-03-14T11:27:30;18.20;85.10
19088;DHT22;9676;50.916;13.352;2023-03-14T11:30:34;18.20;83.20
19088;DHT22;9676;50.916;13.352;2023-03-14T11:33:28;18.10;81.70
19088;DHT22;9676;50.916;13.352;2023-03-14T11:36:28;18.10;81.50
19088;DHT22;9676;50.916;13.352;2023-03-14T11:39:20;17.90;80.20
19088;DHT22;9676;50.916;13.352;2023-03-14T11:42:12;17.80;80.70
19088;DHT22;9676;50.916;13.352;2023-03-14T11:45:14;17.70;79.30
19088;DHT22;9676;50.916;13.352;2023-03-14T11:48:16;17.60;78.30
19088;DHT22;9676;50.916;13.352;2023-03-14T11:51:14;17.50;78.10
19088;DHT22;9676;50.916;13.352;2023-03-14T11:54:14;17.40;79.50
19088;DHT22;9676;50.916;13.352;2023-03-14T11:57:10;17.50;80.00
19088;DHT22;9676;50.916;13.352;2023-03-14T12:00:03;17.50;80.20
19088;DHT22;9676;50.916;13.352;2023-03-14T12:03:04;17.50;80.50
19088;DHT22;9676;50.916;13.352;2023-03-14T12:06:06;17.50;78.30
19088;DHT22;9676;50.916;13.352;2023-03-14T12:08:59;17.50;78.30
19088;DHT22;9676;50.916;13.352;2023-03-14T12:11:53;17.50;78.60
19088;DHT22;9676;50.916;13.352;2023-03-14T12:14:46;17.40;78.40
19088;DHT22;9676;50.916;13.352;2023-03-14T12:17:42;17.40;77.90
19088;DHT22;9676;50.916;13.352;2023-03-14T12:20:37;17.30;78.10
19088;DHT22;9676;50.916;13.352;2023-03-14T12:23:28;17.30;77.40
19088;DHT22;9676;50.916;13.352;2023-03-14T12:26:25;17.30;78.20
19088;DHT22;9676;50.916;13.352;2023-03-14T12:29:17;17.30;77.60
19088;DHT22;9676;50.916;13.352;2023-03-14T12:32:12;17.30;78.30
19088;DHT22;9676;50.916;13.352;2023-03-14T12:35:34;17.40;79.10
19088;DHT22;9676;50.916;13.352;2023-03-14T12:38:32;17.50;77.80
19088;DHT22;9676;50.916;13.352;2023-03-14T12:41:29;17.60;77.90
19088;DHT22;9676;50.916;13.352;2023-03-14T12:44:45;17.70;78.20
19088;DHT22;9676;50.916;13.352;2023-03-14T12:48:01;17.70;76.00
19088;DHT22;9676;50.916;13.352;2023-03-14T12:51:03;17.70;75.80
19088;DHT22;9676;50.916;13.352;2023-03-14T12:57:26;17.70;76.30
19088;DHT22;9676;50.916;13.352;2023-03-14T13:00:19;17.70;76.30
19088;DHT22;9676;50.916;13.352;2023-03-14T13:03:18;17.60;77.10
19088;DHT22;9676;50.916;13.352;2023-03-14T13:06:47;17.60;77.00
19088;DHT22;9676;50.916;13.352;2023-03-14T13:13:19;17.60;76.00
19088;DHT22;9676;50.916;13.352;2023-03-14T13:16:15;17.60;76.50
19088;DHT22;9676;50.916;13.352;2023-03-14T13:19:13;17.60;76.50
19088;DHT22;9676;50.916;13.352;2023-03-14T13:22:17;17.30;75.60
19088;DHT22;9676;50.916;13.352;2023-03-14T13:25:11;17.30;75.80
19088;DHT22;9676;50.916;13.352;2023-03-14T13:28:01;17.40;76.60
19088;DHT22;9676;50.916;13.352;2023-03-14T13:30:55;17.50;77.00
19088;DHT22;9676;50.916;13.352;2023-03-14T13:33:46;17.50;76.20
19088;DHT22;9676;50.916;13.352;2023-03-14T13:36:36;17.50;76.40
19088;DHT22;9676;50.916;13.352;2023-03-14T13:39:28;17.60;76.40
19088;DHT22;9676;50.916;13.352;2023-03-14T13:42:19;17.60;75.50
19088;DHT22;9676;50.916;13.352;2023-03-14T13:45:12;17.60;75.70
19088;DHT22;9676;50.916;13.352;2023-03-14T13:48:04;17.60;75.40
19088;DHT22;9676;50.916;13.352;2023-03-14T13:50:56;17.60;75.90
19088;DHT22;9676;50.916;13.352;2023-03-14T13:53:50;17.60;75.10
19088;DHT22;9676;50.916;13.352;2023-03-14T13:56:41;17.60;75.00
19088;DHT22;9676;50.916;13.352;2023-03-14T13:59:33;17.60;75.20
19088;DHT22;9676;50.916;13.352;2023-03-14T14:02:23;17.60;74.90
19088;DHT22;9676;50.916;13.352;2023-03-14T14:05:13;17.60;74.80
19088;DHT22;9676;50.916;13.352;2023-03-14T14:08:03;17.60;74.10
19088;DHT22;9676;50.916;13.352;2023-03-14T14:10:56;17.50;73.70
19088;DHT22;9676;50.916;13.352;2023-03-14T14:13:50;17.50;73.50
19088;DHT22;9676;50.916;13.352;2023-03-14T14:16:40;17.40;73.70
19088;DHT22;9676;50.916;13.352;2023-03-14T14:19:33;17.30;74.10
19088;DHT22;9676;50.916;13.352;2023-03-14T14:22:23;17.30;74.00
19088;DHT22;9676;50.916;13.352;2023-03-14T14:25:13;17.30;74.50
19088;DHT22;9676;50.916;13.352;2023-03-14T14:28:15;17.30;74.40
19088;DHT22;9676;50.916;13.352;2023-03-14T14:31:20;17.30;73.70
19088;DHT22;9676;50.916;13.352;2023-03-14T14:34:18;17.30;73.60
19088;DHT22;9676;50.916;13.352;2023-03-14T14:37:19;17.20;73.50
19088;DHT22;9676;50.916;13.352;2023-03-14T14:40:18;17.20;73.10
19088;DHT22;9676;50.916;13.352;2023-03-14T14:43:16;17.20;73.60
19088;DHT22;9676;50.916;13.352;2023-03-14T14:46:08;17.20;73.30
19088;DHT22;9676;50.916;13.352;2023-03-14T14:49:04;17.20;73.70
19088;DHT22;9676;50.916;13.352;2023-03-14T14:52:00;17.10;73.60
19088;DHT22;9676;50.916;13.352;2023-03-14T14:54:53;17.00;73.40
19088;DHT22;9676;50.916;13.352;2023-03-14T14:57:49;17.00;73.50
19088;DHT22;9676;50.916;13.352;2023-03-14T15:00:39;16.90;72.90
19088;DHT22;9676;50.916;13.352;2023-03-14T15:03:32;16.80;72.90
19088;DHT22;9676;50.916;13.352;2023-03-14T15:06:24;16.80;72.90
19088;DHT22;9676;50.916;13.352;2023-03-14T15:09:17;16.60;72.80
19088;DHT22;9676;50.916;13.352;2023-03-14T15:12:07;16.60;73.10
19088;DHT22;9676;50.916;13.352;2023-03-14T15:14:57;16.50;73.10
19088;DHT22;9676;50.916;13.352;2023-03-14T15:17:47;16.50;73.40
19088;DHT22;9676;50.916;13.352;2023-03-14T15:20:36;16.40;73.50
19088;DHT22;9676;50.916;13.352;2023-03-14T15:23:27;16.40;73.70
19088;DHT22;9676;50.916;13.352;2023-03-14T15:26:18;16.40;73.70
19088;DHT22;9676;50.916;13.352;2023-03-14T15:29:08;16.40;73.80
19088;DHT22;9676;50.916;13.352;2023-03-14T15:32:00;16.40;73.90
19088;DHT22;9676;50.916;13.352;2023-03-14T15:34:49;16.40;74.00
19088;DHT22;9676;50.916;13.352;2023-03-14T15:37:39;16.40;73.90
19088;DHT22;9676;50.916;13.352;2023-03-14T15:40:30;16.40;73.90
19088;DHT22;9676;50.916;13.352;2023-03-14T15:43:20;16.40;73.60
19088;DHT22;9676;50.916;13.352;2023-03-14T15:46:09;16.40;73.70
19088;DHT22;9676;50.916;13.352;2023-03-14T15:48:59;16.30;73.60
19088;DHT22;9676;50.916;13.352;2023-03-14T15:51:48;16.30;73.60
19088;DHT22;9676;50.916;13.352;2023-03-14T15:54:38;16.20;73.70
19088;DHT22;9676;50.916;13.352;2023-03-14T15:57:29;16.20;73.70
19088;DHT22;9676;50.916;13.352;2023-03-14T16:00:20;16.10;74.00
19088;DHT22;9676;50.916;13.352;2023-03-14T16:03:11;15.90;73.90
19088;DHT22;9676;50.916;13.352;2023-03-14T16:06:00;15.80;74.00
19088;DHT22;9676;50.916;13.352;2023-03-14T16:08:50;15.70;74.20
19088;DHT22;9676;50.916;13.352;2023-03-14T16:11:39;15.60;74.70
19088;DHT22;9676;50.916;13.352;2023-03-14T16:14:30;15.40;74.90
19088;DHT22;9676;50.916;13.352;2023-03-14T16:17:20;15.30;75.50
19088;DHT22;9676;50.916;13.352;2023-03-14T16:20:10;15.20;75.60
19088;DHT22;9676;50.916;13.352;2023-03-14T16:23:00;15.20;76.10
19088;DHT22;9676;50.916;13.352;2023-03-14T16:25:49;15.10;76.20
19088;DHT22;9676;50.916;13.352;2023-03-14T16:28:39;14.90;76.10
19088;DHT22;9676;50.916;13.352;2023-03-14T16:31:30;14.80;76.30
19088;DHT22;9676;50.916;13.352;2023-03-14T16:34:20;14.70;77.20
19088;DHT22;9676;50.916;13.352;2023-03-14T16:37:09;14.60;77.10
19088;DHT22;9676;50.916;13.352;2023-03-14T16:40:00;14.40;76.40
19088;DHT22;9676;50.916;13.352;2023-03-14T16:43:04;14.30;76.10
19088;DHT22;9676;50.916;13.352;2023-03-14T16:46:11;14.00;74.70
19088;DHT22;9676;50.916;13.352;2023-03-14T16:49:05;13.70;74.10
19088;DHT22;9676;50.916;13.352;2023-03-14T16:51:55;13.40;74.10
19088;DHT22;9676;50.916;13.352;2023-03-14T16:54:45;13.10;73.70
19088;DHT22;9676;50.916;13.352;2023-03-14T16:57:35;12.90;73.70
19088;DHT22;9676;50.916;13.352;2023-03-14T17:00:25;12.60;73.70
19088;DHT22;9676;50.916;13.352;2023-03-14T17:03:16;12.40;74.00
19088;DHT22;9676;50.916;13.352;2023-03-14T17:06:10;12.20;74.80
19088;DHT22;9676;50.916;13.352;2023-03-14T17:09:00;12.00;74.80
19088;DHT22;9676;50.916;13.352;2023-03-14T17:11:51;11.70;73.90
19088;DHT22;9676;50.916;13.352;2023-03-14T17:14:42;11.50;74.10
19088;DHT22;9676;50.916;13.352;2023-03-14T17:17:32;11.40;74.40
19088;DHT22;9676;50.916;13.352;2023-03-14T17:20:21;11.20;74.80
19088;DHT22;9676;50.916;13.352;2023-03-14T17:23:12;11.10;74.30
19088;DHT22;9676;50.916;13.352;2023-03-14T17:26:01;10.90;74.50
19088;DHT22;9676;50.916;13.352;2023-03-14T17:28:51;10.70;74.30
19088;DHT22;9676;50.916;13.352;2023-03-14T17:31:40;10.60;74.30
19088;DHT22;9676;50.916;13.352;2023-03-14T17:34:29;10.50;74.70
19088;DHT22;9676;50.916;13.352;2023-03-14T17:37:19;10.40;75.00
19088;DHT22;9676;50.916;13.352;2023-03-14T17:40:10;10.30;75.40
19088;DHT22;9676;50.916;13.352;2023-03-14T17:43:00;10.20;75.90
19088;DHT22;9676;50.916;13.352;2023-03-14T17:45:56;10.10;75.50
19088;DHT22;9676;50.916;13.352;2023-03-14T17:48:47;10.00;76.80
19088;DHT22;9676;50.916;13.352;2023-03-14T17:51:37;9.90;77.30
19088;DHT22;9676;50.916;13.352;2023-03-14T17:54:26;9.90;76.70
19088;DHT22;9676;50.916;13.352;2023-03-14T17:57:17;9.80;76.40
19088;DHT22;9676;50.916;13.352;2023-03-14T18:00:07;9.70;76.50
19088;DHT22;9676;50.916;13.352;2023-03-14T18:02:58;9.60;76.00
19088;DHT22;9676;50.916;13.352;2023-03-14T18:05:48;9.40;75.60
19088;DHT22;9676;50.916;13.352;2023-03-14T18:08:38;9.40;75.60
19088;DHT22;9676;50.916;13.352;2023-03-14T18:11:30;9.20;76.20
19088;DHT22;9676;50.916;13.352;2023-03-14T18:14:21;9.10;76.20
19088;DHT22;9676;50.916;13.352;2023-03-14T18:17:11;9.00;76.80
19088;DHT22;9676;50.916;13.352;2023-03-14T18:20:00;9.00;76.60
19088;DHT22;9676;50.916;13.352;2023-03-14T18:22:51;8.90;76.30